KBRL/BRL METAR and TAF weather

Enter ICAO airport designator
Station Type Date Time Source
KBRL METAR 2021/09/28 16:53 UTC NOAA

KBRL 281653Z AUTO 10005KT 10SM CLR 24/17 A2996 RMK AO2 SLP141 T02440167


Station Type Date Time Source
KBRL Decoded METAR 2021/09/28 16:53 UTC NOAA

BURLINGTON REGIONAL AIRPORT, IA, United States (KBRL) 40-46N 91-08W 211M
Sep 28, 2021 - 12:53 PM EDT / 2021.09.28 1653 UTC
Wind: from the E (100 degrees) at 6 MPH (5 KT):0
Visibility: 10 mile(s):0
Sky conditions: clear
Temperature: 75.9 F (24.4 C)
Dew Point: 62.1 F (16.7 C)
Relative Humidity: 62%
Pressure (altimeter): 29.96 in. Hg (1014 hPa)
ob: KBRL 281653Z AUTO 10005KT 10SM CLR 24/17 A2996 RMK AO2 SLP141 T02440167
cycle: 17

Station Type Date Time Source
KBRL TAF 2021/09/28 18:22 UTC NOAA

TAF KBRL 281720Z 2818/2918 10008KT P6SM SKC
FM290000 12004KT P6SM SKC

Example: see airport list